createdAt,value
2022-10-22T00:00:32.757Z,5.85
2022-10-22T00:02:59.495Z,6.00
2022-10-22T00:05:26.308Z,6.20
2022-10-22T00:07:52.989Z,6.43
2022-10-22T00:10:19.804Z,6.25
2022-10-22T00:12:46.468Z,6.07
2022-10-22T00:15:13.664Z,5.57
2022-10-22T00:17:40.711Z,6.18
2022-10-22T00:20:08.258Z,6.20
2022-10-22T00:22:35.153Z,6.25
2022-10-22T00:25:01.847Z,6.80
2022-10-22T00:27:28.545Z,5.95
2022-10-22T00:29:55.231Z,5.60
2022-10-22T00:32:21.939Z,5.68
2022-10-22T00:34:48.648Z,5.35
2022-10-22T00:37:15.416Z,5.13
2022-10-22T00:39:42.146Z,4.93
2022-10-22T00:42:17.664Z,5.47
2022-10-22T00:45:13.783Z,5.50
2022-10-22T00:47:50.075Z,4.57
2022-10-22T00:50:52.525Z,4.65
2022-10-22T00:55:52.046Z,4.22
2022-10-22T00:58:22.951Z,6.28
2022-10-22T01:00:50.085Z,6.03
2022-10-22T01:03:16.902Z,5.28
2022-10-22T01:05:53.820Z,4.90
2022-10-22T01:08:39.812Z,5.28
2022-10-22T01:11:20.279Z,4.80
2022-10-22T01:14:09.611Z,4.50
2022-10-22T01:16:54.191Z,5.13
2022-10-22T01:19:43.249Z,4.63
2022-10-22T01:22:31.963Z,3.95
2022-10-22T01:25:08.790Z,4.28
2022-10-22T01:27:41.001Z,4.18
2022-10-22T01:30:10.821Z,4.45
2022-10-22T01:32:51.233Z,5.45
2022-10-22T01:35:26.706Z,5.18
2022-10-22T01:37:58.426Z,4.65
2022-10-22T01:40:27.203Z,4.50
2022-10-22T01:43:03.876Z,4.88
2022-10-22T01:45:36.408Z,5.03
2022-10-22T01:48:25.830Z,5.43
2022-10-22T01:50:52.516Z,4.72
2022-10-22T01:53:50.981Z,4.65
2022-10-22T01:56:54.348Z,4.22
2022-10-22T01:59:46.113Z,4.60
2022-10-22T02:02:40.143Z,4.38
2022-10-22T02:05:14.221Z,5.18
2022-10-22T02:07:49.430Z,5.45
2022-10-22T02:10:18.305Z,5.07
2022-10-22T02:12:49.768Z,5.25
2022-10-22T02:15:19.349Z,6.35
2022-10-22T02:17:47.517Z,5.93
2022-10-22T02:20:22.123Z,5.65
2022-10-22T02:22:48.988Z,4.40
2022-10-22T02:25:16.457Z,5.05
2022-10-22T02:27:51.668Z,5.07
2022-10-22T02:30:21.170Z,5.90
2022-10-22T02:32:54.178Z,5.57
2022-10-22T02:35:23.770Z,5.75
2022-10-22T02:37:52.158Z,5.25
2022-10-22T02:40:19.960Z,5.60
2022-10-22T02:42:49.420Z,5.00
2022-10-22T02:45:17.766Z,5.07
2022-10-22T02:47:44.629Z,4.72
2022-10-22T02:50:11.560Z,5.07
2022-10-22T02:52:38.740Z,5.55
2022-10-22T02:55:06.504Z,5.32
2022-10-22T02:57:33.587Z,6.97
2022-10-22T03:00:00.522Z,5.60
2022-10-22T03:02:27.341Z,6.28
2022-10-22T03:04:54.209Z,6.32
2022-10-22T03:07:20.968Z,5.68
2022-10-22T03:09:47.714Z,6.03
2022-10-22T03:12:14.657Z,6.50
2022-10-22T03:14:41.385Z,6.00
2022-10-22T03:17:08.879Z,6.47
2022-10-22T03:19:35.814Z,6.55
2022-10-22T03:22:10.162Z,6.60
2022-10-22T03:24:39.858Z,6.80
2022-10-22T03:27:06.729Z,5.70
2022-10-22T03:29:37.518Z,6.25
2022-10-22T03:32:04.315Z,6.25
2022-10-22T03:34:31.089Z,6.47
2022-10-22T03:37:00.238Z,6.82
2022-10-22T03:39:29.683Z,6.80
2022-10-22T03:41:57.582Z,6.50
2022-10-22T03:44:24.900Z,6.60
2022-10-22T03:46:51.882Z,6.50
2022-10-22T03:49:18.585Z,6.82
2022-10-22T03:51:45.360Z,6.25
2022-10-22T03:54:12.333Z,5.70
2022-10-22T03:56:39.271Z,5.68
2022-10-22T03:59:06.026Z,6.30
2022-10-22T04:01:32.851Z,6.18
2022-10-22T04:03:59.920Z,6.53
2022-10-22T04:06:27.044Z,7.78
2022-10-22T04:08:53.947Z,7.60
2022-10-22T04:11:20.784Z,7.38
2022-10-22T04:13:47.656Z,9.15
2022-10-22T04:16:17.265Z,7.68
2022-10-22T04:18:45.252Z,8.23
2022-10-22T04:21:14.055Z,8.27
2022-10-22T04:23:49.096Z,10.07
2022-10-22T04:26:17.083Z,9.60
2022-10-22T04:28:45.010Z,8.85
2022-10-22T04:31:15.844Z,9.25
2022-10-22T04:33:42.712Z,9.52
2022-10-22T04:36:12.549Z,8.30
2022-10-22T04:38:40.337Z,9.32
2022-10-22T04:41:10.105Z,8.93
2022-10-22T04:43:36.877Z,8.65
2022-10-22T04:46:04.477Z,8.40
2022-10-22T04:48:31.363Z,10.07
2022-10-22T04:50:59.071Z,10.15
2022-10-22T04:53:26.243Z,8.65
2022-10-22T04:55:53.325Z,8.68
2022-10-22T04:58:20.257Z,7.63
2022-10-22T05:00:47.046Z,8.43
2022-10-22T05:03:13.919Z,7.15
2022-10-22T05:05:40.621Z,7.57
2022-10-22T05:08:07.348Z,7.30
2022-10-22T05:10:34.132Z,6.68
2022-10-22T05:13:00.901Z,6.60
2022-10-22T05:15:27.632Z,6.97
2022-10-22T05:17:54.355Z,6.65
2022-10-22T05:20:21.126Z,6.82
2022-10-22T05:22:47.879Z,6.20
2022-10-22T05:25:14.823Z,5.82
2022-10-22T05:27:41.769Z,5.63
2022-10-22T05:30:09.096Z,6.32
2022-10-22T05:32:36.053Z,7.13
2022-10-22T05:35:02.868Z,6.85
2022-10-22T05:37:29.593Z,8.98
2022-10-22T05:40:06.542Z,7.80
2022-10-22T05:42:43.299Z,8.93
2022-10-22T05:45:10.247Z,9.18
2022-10-22T05:47:37.001Z,11.85
2022-10-22T05:50:03.960Z,9.50
2022-10-22T05:52:30.995Z,6.82
2022-10-22T05:54:57.754Z,11.10
2022-10-22T05:57:24.574Z,7.32
2022-10-22T05:59:51.362Z,7.95
2022-10-22T06:02:18.153Z,6.05
2022-10-22T06:04:45.004Z,7.22
2022-10-22T06:07:15.886Z,7.03
2022-10-22T06:09:42.935Z,6.75
2022-10-22T06:12:10.974Z,6.35
2022-10-22T06:14:37.863Z,9.93
2022-10-22T06:17:04.604Z,8.73
2022-10-22T06:19:31.469Z,8.95
2022-10-22T06:21:58.428Z,8.05
2022-10-22T06:24:25.158Z,8.88
2022-10-22T06:26:53.072Z,7.93
2022-10-22T06:29:20.314Z,8.10
2022-10-22T06:31:47.812Z,8.13
2022-10-22T06:34:15.285Z,8.75
2022-10-22T06:36:43.829Z,9.30
2022-10-22T06:39:16.757Z,9.50
2022-10-22T06:41:43.656Z,9.35
2022-10-22T06:44:16.295Z,10.52
2022-10-22T06:46:43.693Z,9.80
2022-10-22T06:49:14.148Z,10.65
2022-10-22T06:51:40.883Z,8.90
2022-10-22T06:54:08.081Z,9.63
2022-10-22T06:56:34.943Z,10.27
2022-10-22T06:59:02.084Z,10.75
2022-10-22T07:01:31.716Z,8.65
2022-10-22T07:03:59.326Z,9.98
2022-10-22T07:06:27.750Z,9.45
2022-10-22T07:08:56.369Z,9.27
2022-10-22T07:11:28.882Z,8.35
2022-10-22T07:13:58.009Z,8.88
2022-10-22T07:16:29.625Z,9.40
2022-10-22T07:18:59.320Z,9.18
2022-10-22T07:21:26.194Z,9.15
2022-10-22T07:23:53.148Z,10.32
2022-10-22T07:26:20.426Z,10.20
2022-10-22T07:28:48.219Z,11.63
2022-10-22T07:31:16.747Z,9.63
2022-10-22T07:33:43.832Z,9.73
2022-10-22T07:36:17.976Z,9.95
2022-10-22T07:38:52.971Z,9.32
2022-10-22T07:41:19.766Z,10.02
2022-10-22T07:43:46.684Z,9.63
2022-10-22T07:46:13.806Z,9.30
2022-10-22T07:48:40.705Z,7.95
2022-10-22T07:51:07.960Z,8.27
2022-10-22T07:53:34.817Z,8.60
2022-10-22T07:56:01.659Z,9.25
2022-10-22T07:58:28.850Z,8.65
2022-10-22T08:00:57.489Z,8.57
2022-10-22T08:03:24.613Z,7.63
2022-10-22T08:05:52.056Z,7.28
2022-10-22T08:08:19.286Z,6.50
2022-10-22T08:10:47.416Z,6.70
2022-10-22T08:13:14.309Z,5.82
2022-10-22T08:18:15.007Z,7.07
2022-10-22T08:20:42.588Z,7.18
2022-10-22T08:23:09.685Z,6.93
2022-10-22T08:25:36.894Z,5.57
2022-10-22T08:28:03.861Z,5.70
2022-10-22T08:30:30.808Z,5.85
2022-10-22T08:32:57.538Z,5.53
2022-10-22T08:35:24.230Z,5.20
2022-10-22T08:37:50.953Z,4.70
2022-10-22T08:43:35.546Z,3.80
2022-10-22T08:46:19.399Z,3.67
2022-10-22T08:48:54.833Z,3.10
2022-10-22T08:51:28.501Z,2.55
2022-10-22T08:54:22.435Z,2.97
2022-10-22T08:57:35.458Z,2.72
2022-10-22T09:00:11.225Z,2.35
2022-10-22T09:02:52.884Z,2.83
2022-10-22T09:05:31.468Z,2.00
2022-10-22T09:07:58.250Z,2.83
2022-10-22T09:10:29.499Z,1.98
2022-10-22T09:12:56.243Z,1.73
2022-10-22T09:15:23.001Z,1.85
2022-10-22T09:18:26.499Z,1.92
2022-10-22T09:21:19.372Z,1.80
2022-10-22T09:23:58.788Z,1.70
2022-10-22T09:26:26.564Z,1.45
2022-10-22T09:28:53.690Z,1.52
2022-10-22T09:31:20.377Z,1.60
2022-10-22T09:33:52.276Z,1.75
2022-10-22T09:36:22.714Z,1.65
2022-10-22T09:38:51.848Z,2.92
2022-10-22T09:41:26.294Z,1.55
2022-10-22T09:43:53.267Z,1.77
2022-10-22T09:46:24.476Z,1.58
2022-10-22T09:49:01.598Z,1.67
2022-10-22T09:51:40.933Z,1.63
2022-10-22T09:54:26.083Z,2.13
2022-10-22T09:57:09.850Z,1.50
2022-10-22T09:59:42.531Z,2.03
2022-10-22T10:02:19.974Z,1.88
2022-10-22T10:04:56.015Z,1.77
2022-10-22T10:07:30.133Z,1.85
2022-10-22T10:09:57.363Z,1.73
2022-10-22T10:12:49.736Z,1.90
2022-10-22T10:15:36.601Z,2.00
2022-10-22T10:18:12.365Z,1.95
2022-10-22T10:21:06.579Z,1.73
2022-10-22T10:24:09.227Z,1.95
2022-10-22T10:26:57.951Z,2.13
2022-10-22T10:29:50.835Z,2.47
2022-10-22T10:32:44.813Z,1.58
2022-10-22T10:35:20.482Z,1.80
2022-10-22T10:40:50.282Z,2.08
2022-10-22T10:43:50.253Z,2.25
2022-10-22T10:46:27.211Z,1.75
2022-10-22T10:49:07.179Z,1.77
2022-10-22T10:52:01.355Z,2.08
2022-10-22T10:54:35.486Z,1.98
2022-10-22T10:57:08.147Z,1.48
2022-10-22T11:00:09.002Z,1.85
2022-10-22T11:03:09.863Z,1.67
2022-10-22T11:05:42.576Z,2.03
2022-10-22T11:08:22.860Z,1.75
2022-10-22T11:14:05.600Z,1.50
2022-10-22T11:16:45.035Z,1.88
2022-10-22T11:19:46.125Z,1.88
2022-10-22T11:22:37.187Z,1.60
2022-10-22T11:25:12.776Z,1.38
2022-10-22T11:27:47.593Z,1.60
2022-10-22T11:30:16.319Z,1.73
2022-10-22T11:32:46.009Z,1.55
2022-10-22T11:35:24.833Z,1.50
2022-10-22T11:37:55.811Z,1.63
2022-10-22T11:40:45.278Z,1.63
2022-10-22T11:43:49.036Z,1.80
2022-10-22T11:46:29.042Z,1.27
2022-10-22T11:49:24.192Z,1.45
2022-10-22T11:51:52.325Z,1.90
2022-10-22T11:54:36.707Z,1.52
2022-10-22T11:57:15.589Z,1.50
2022-10-22T12:00:01.316Z,1.17
2022-10-22T12:02:28.011Z,1.20
2022-10-22T12:05:17.988Z,0.90
2022-10-22T12:08:00.001Z,1.80
2022-10-22T12:12:58.499Z,1.00
2022-10-22T12:15:28.511Z,1.10
2022-10-22T12:18:05.334Z,2.65
2022-10-22T12:20:32.257Z,1.20
2022-10-22T12:22:59.988Z,1.38
2022-10-22T12:25:35.457Z,1.23
2022-10-22T12:28:02.950Z,1.27
2022-10-22T12:30:36.426Z,1.00
2022-10-22T12:33:07.219Z,1.27
2022-10-22T12:35:42.615Z,1.30
2022-10-22T12:38:20.157Z,1.15
2022-10-22T12:40:49.139Z,1.17
2022-10-22T12:43:28.832Z,1.15
2022-10-22T12:45:57.735Z,0.95
2022-10-22T12:48:28.304Z,1.20
2022-10-22T12:50:59.965Z,1.08
2022-10-22T12:53:34.890Z,1.33
2022-10-22T12:56:17.700Z,1.35
2022-10-22T12:58:51.604Z,1.38
2022-10-22T13:01:18.667Z,1.10
2022-10-22T13:03:50.855Z,1.30
2022-10-22T13:06:20.294Z,1.30
2022-10-22T13:08:57.457Z,1.35
2022-10-22T13:11:24.218Z,1.42
2022-10-22T13:13:50.887Z,1.15
2022-10-22T13:16:24.343Z,1.48
2022-10-22T13:18:52.991Z,1.15
2022-10-22T13:21:27.810Z,0.98
2022-10-22T13:23:57.826Z,1.35
2022-10-22T13:26:31.261Z,1.23
2022-10-22T13:28:58.841Z,1.52
2022-10-22T13:31:28.988Z,1.77
2022-10-22T13:33:59.191Z,1.50
2022-10-22T13:36:26.443Z,1.27
2022-10-22T13:38:53.149Z,1.40
2022-10-22T13:41:28.345Z,1.10
2022-10-22T13:43:55.557Z,1.30
2022-10-22T13:46:23.619Z,1.15
2022-10-22T13:48:53.484Z,1.33
2022-10-22T13:51:22.945Z,1.08
2022-10-22T13:53:51.313Z,1.25
2022-10-22T13:56:20.611Z,1.00
2022-10-22T13:58:48.275Z,1.05
2022-10-22T14:01:24.288Z,0.80
2022-10-22T14:03:54.315Z,1.05
2022-10-22T14:06:22.677Z,1.02
2022-10-22T14:08:56.082Z,0.77
2022-10-22T14:11:22.908Z,0.70
2022-10-22T14:13:49.711Z,1.55
2022-10-22T14:16:22.579Z,0.80
2022-10-22T14:18:49.979Z,1.02
2022-10-22T14:21:18.334Z,0.75
2022-10-22T14:23:47.158Z,0.90
2022-10-22T14:26:28.130Z,0.95
2022-10-22T14:29:11.481Z,1.27
2022-10-22T14:34:14.646Z,1.40
2022-10-22T14:36:43.945Z,1.48
2022-10-22T14:39:11.694Z,1.30
2022-10-22T14:41:38.611Z,0.90
2022-10-22T14:44:05.411Z,1.27
2022-10-22T14:46:32.296Z,1.10
2022-10-22T14:48:59.060Z,2.53
2022-10-22T14:51:25.806Z,1.35
2022-10-22T14:53:52.686Z,1.15
2022-10-22T14:56:21.486Z,1.23
2022-10-22T14:58:48.611Z,1.45
2022-10-22T15:01:15.429Z,1.30
2022-10-22T15:03:42.370Z,1.33
2022-10-22T15:06:09.155Z,1.95
2022-10-22T15:08:36.025Z,1.50
2022-10-22T15:11:08.845Z,1.23
2022-10-22T15:13:35.950Z,1.58
2022-10-22T15:16:06.352Z,1.30
2022-10-22T15:18:33.281Z,1.75
2022-10-22T15:21:03.088Z,1.67
2022-10-22T15:23:30.765Z,1.58
2022-10-22T15:25:57.614Z,1.55
2022-10-22T15:28:24.995Z,2.03
2022-10-22T15:31:01.725Z,1.48
2022-10-22T15:33:35.170Z,2.15
2022-10-22T15:36:14.272Z,2.28
2022-10-22T15:38:41.428Z,1.80
2022-10-22T15:41:16.299Z,1.65
2022-10-22T15:43:49.383Z,1.70
2022-10-22T15:46:19.583Z,1.63
2022-10-22T15:48:46.674Z,2.00
2022-10-22T15:51:16.216Z,1.55
2022-10-22T15:53:43.904Z,1.80
2022-10-22T15:56:13.985Z,1.90
2022-10-22T15:58:43.067Z,1.98
2022-10-22T16:01:13.165Z,1.50
2022-10-22T16:03:41.557Z,1.60
2022-10-22T16:06:09.536Z,2.25
2022-10-22T16:08:37.484Z,1.83
2022-10-22T16:11:04.887Z,1.60
2022-10-22T16:13:31.695Z,1.55
2022-10-22T16:16:00.563Z,2.20
2022-10-22T16:18:27.433Z,3.55
2022-10-22T16:20:56.537Z,10.10
2022-10-22T16:23:25.866Z,9.05
2022-10-22T16:25:52.686Z,5.75
2022-10-22T16:28:19.561Z,4.80
2022-10-22T16:30:46.455Z,1.98
2022-10-22T16:33:14.067Z,3.22
2022-10-22T16:35:42.292Z,2.03
2022-10-22T16:38:10.800Z,2.25
2022-10-22T16:40:39.193Z,2.88
2022-10-22T16:43:08.994Z,3.42
2022-10-22T16:45:35.801Z,3.40
2022-10-22T16:48:02.873Z,3.40
2022-10-22T16:50:29.651Z,3.40
2022-10-22T16:52:56.845Z,5.35
2022-10-22T16:55:23.868Z,3.65
2022-10-22T16:57:52.202Z,10.20
2022-10-22T17:00:20.257Z,7.47
2022-10-22T17:02:54.098Z,7.65
2022-10-22T17:05:21.257Z,14.48
2022-10-22T17:07:48.237Z,5.10
2022-10-22T17:10:16.291Z,3.60
2022-10-22T17:12:43.509Z,3.58
2022-10-22T17:15:10.706Z,3.13
2022-10-22T17:17:38.046Z,2.88
2022-10-22T17:20:06.434Z,3.03
2022-10-22T17:22:33.515Z,2.70
2022-10-22T17:25:13.876Z,2.67
2022-10-22T17:27:42.172Z,2.60
2022-10-22T17:30:12.680Z,2.90
2022-10-22T17:32:39.625Z,2.67
2022-10-22T17:35:07.908Z,2.30
2022-10-22T17:37:35.305Z,2.83
2022-10-22T17:40:02.976Z,2.55
2022-10-22T17:42:29.985Z,3.90
2022-10-22T17:44:57.764Z,3.22
2022-10-22T17:47:24.550Z,3.92
2022-10-22T17:49:51.611Z,4.20
2022-10-22T17:52:18.721Z,3.80
2022-10-22T17:54:49.473Z,4.32
2022-10-22T17:57:16.492Z,3.85
2022-10-22T17:59:43.300Z,4.07
2022-10-22T18:02:15.409Z,4.50
2022-10-22T18:04:45.688Z,4.72
2022-10-22T18:07:13.401Z,6.20
2022-10-22T18:09:40.529Z,6.72
2022-10-22T18:12:07.574Z,7.60
2022-10-22T18:14:34.480Z,7.07
2022-10-22T18:17:04.149Z,5.50
2022-10-22T18:19:31.097Z,4.95
2022-10-22T18:21:58.521Z,4.63
2022-10-22T18:24:25.383Z,2.95
2022-10-22T18:26:52.593Z,2.85
2022-10-22T18:29:20.674Z,3.05
2022-10-22T18:31:48.460Z,3.22
2022-10-22T18:34:17.692Z,3.55
2022-10-22T18:39:17.479Z,3.50
2022-10-22T18:41:47.335Z,2.85
2022-10-22T18:44:15.177Z,2.63
2022-10-22T18:46:42.290Z,2.35
2022-10-22T18:49:13.265Z,2.97
2022-10-22T18:51:40.200Z,3.53
2022-10-22T18:54:22.264Z,3.22
2022-10-22T18:56:50.368Z,6.07
2022-10-22T18:59:19.694Z,7.10
2022-10-22T19:01:46.823Z,9.27
2022-10-22T19:04:14.208Z,10.25
2022-10-22T19:06:45.285Z,10.25
2022-10-22T19:09:16.269Z,10.73
2022-10-22T19:11:44.300Z,10.27
2022-10-22T19:14:12.412Z,10.20
2022-10-22T19:16:39.331Z,10.45
2022-10-22T19:19:07.320Z,8.75
2022-10-22T19:21:35.299Z,8.27
2022-10-22T19:24:02.525Z,8.85
2022-10-22T19:26:30.419Z,11.02
2022-10-22T19:28:58.896Z,12.98
2022-10-22T19:31:27.064Z,14.02
2022-10-22T19:33:57.191Z,14.52
2022-10-22T19:36:25.330Z,11.98
2022-10-22T19:38:52.718Z,11.65
2022-10-22T19:41:21.351Z,11.13
2022-10-22T19:43:50.912Z,10.13
2022-10-22T19:46:18.713Z,9.88
2022-10-22T19:51:21.266Z,10.77
2022-10-22T19:53:49.107Z,9.00
2022-10-22T19:56:20.404Z,9.43
2022-10-22T19:58:47.775Z,9.35
2022-10-22T20:01:16.150Z,11.23
2022-10-22T20:03:43.602Z,10.88
2022-10-22T20:06:12.128Z,9.95
2022-10-22T20:08:39.881Z,11.32
2022-10-22T20:11:15.093Z,10.93
2022-10-22T20:13:42.848Z,7.90
2022-10-22T20:16:25.466Z,8.45
2022-10-22T20:18:52.851Z,8.82
2022-10-22T20:21:20.583Z,8.02
2022-10-22T20:23:50.888Z,9.45
2022-10-22T20:26:17.616Z,9.55
2022-10-22T20:28:44.283Z,8.73
2022-10-22T20:31:17.363Z,10.30
2022-10-22T20:33:44.178Z,9.60
2022-10-22T20:36:15.761Z,9.82
2022-10-22T20:38:43.228Z,9.98
2022-10-22T20:41:19.222Z,9.77
2022-10-22T20:43:47.340Z,8.70
2022-10-22T20:46:26.795Z,8.77
2022-10-22T20:48:56.416Z,8.60
2022-10-22T20:51:23.091Z,7.72
2022-10-22T20:53:50.214Z,7.65
2022-10-22T20:56:18.072Z,7.10
2022-10-22T20:58:48.876Z,7.63
2022-10-22T21:01:24.033Z,8.32
2022-10-22T21:03:52.609Z,8.05
2022-10-22T21:06:23.496Z,8.48
2022-10-22T21:08:50.886Z,8.77
2022-10-22T21:11:18.566Z,9.07
2022-10-22T21:13:45.335Z,8.75
2022-10-22T21:16:13.910Z,9.63
2022-10-22T21:18:41.046Z,9.88
2022-10-22T21:21:09.062Z,9.40
2022-10-22T21:23:36.963Z,9.15
2022-10-22T21:26:04.383Z,9.32
2022-10-22T21:28:35.239Z,9.68
2022-10-22T21:31:04.148Z,9.52
2022-10-22T21:33:31.468Z,9.05
2022-10-22T21:35:58.244Z,9.52
2022-10-22T21:38:25.972Z,9.63
2022-10-22T21:40:52.711Z,9.65
2022-10-22T21:43:19.706Z,9.68
2022-10-22T21:45:46.670Z,9.90
2022-10-22T21:48:14.013Z,8.90
2022-10-22T21:50:42.054Z,8.80
2022-10-22T21:53:10.080Z,8.38
2022-10-22T21:55:40.532Z,8.23
2022-10-22T21:58:08.531Z,7.38
2022-10-22T22:00:36.171Z,7.60
2022-10-22T22:03:03.504Z,8.05
2022-10-22T22:05:30.178Z,7.10
2022-10-22T22:07:56.868Z,7.53
2022-10-22T22:10:26.473Z,6.10
2022-10-22T22:12:53.470Z,6.32
2022-10-22T22:15:20.546Z,5.65
2022-10-22T22:17:47.464Z,6.07
2022-10-22T22:20:14.238Z,4.93
2022-10-22T22:22:41.074Z,5.25
2022-10-22T22:25:08.352Z,5.35
2022-10-22T22:27:35.132Z,5.35
2022-10-22T22:30:01.867Z,6.53
2022-10-22T22:32:28.559Z,6.40
2022-10-22T22:34:55.243Z,5.40
2022-10-22T22:37:21.951Z,6.03
2022-10-22T22:39:48.667Z,5.88
2022-10-22T22:42:15.359Z,5.63
2022-10-22T22:44:42.026Z,6.25
2022-10-22T22:47:08.731Z,6.25
2022-10-22T22:49:36.841Z,5.82
2022-10-22T22:52:04.335Z,6.38
2022-10-22T22:54:31.097Z,6.78
2022-10-22T22:56:57.841Z,6.65
2022-10-22T22:59:24.526Z,6.20
2022-10-22T23:01:51.316Z,6.22
2022-10-22T23:04:22.837Z,7.15
2022-10-22T23:06:50.698Z,6.60
2022-10-22T23:11:47.574Z,6.18
2022-10-22T23:14:15.750Z,5.68
2022-10-22T23:16:48.140Z,6.65
2022-10-22T23:19:17.715Z,6.07
2022-10-22T23:21:47.250Z,5.90
2022-10-22T23:24:17.504Z,5.50
2022-10-22T23:26:46.396Z,5.78
2022-10-22T23:29:19.711Z,6.38
2022-10-22T23:31:47.549Z,6.50
2022-10-22T23:36:50.628Z,6.25
2022-10-22T23:39:19.835Z,5.28
2022-10-22T23:41:46.710Z,5.32
2022-10-22T23:44:13.719Z,5.75
2022-10-22T23:46:40.584Z,5.53
2022-10-22T23:49:08.763Z,5.85
2022-10-22T23:51:36.001Z,6.50
2022-10-22T23:54:05.848Z,4.93
2022-10-22T23:56:35.846Z,4.32
2022-10-22T23:59:03.847Z,5.57
